createdAt,value
2023-01-28T00:00:58.720Z,97128.75
2023-01-28T00:03:55.602Z,97128.53
2023-01-28T00:06:53.666Z,97139.16
2023-01-28T00:09:50.455Z,97127.41
2023-01-28T00:12:47.287Z,97121.97
2023-01-28T00:15:44.532Z,97118.34
2023-01-28T00:18:41.555Z,97120.16
2023-01-28T00:21:38.321Z,97125.44
2023-01-28T00:24:35.088Z,97126.59
2023-01-28T00:27:31.849Z,97123.03
2023-01-28T00:30:28.628Z,97121.56
2023-01-28T00:33:25.399Z,97116.16
2023-01-28T00:36:24.379Z,97122.06
2023-01-28T00:39:21.267Z,97121.94
2023-01-28T00:42:18.076Z,97130.53
2023-01-28T00:45:15.239Z,97127.91
2023-01-28T00:48:12.229Z,97130.63
2023-01-28T00:51:10.284Z,97134.94
2023-01-28T00:54:07.199Z,97140.44
2023-01-28T00:57:04.019Z,97140.50
2023-01-28T01:00:00.787Z,97147.16
2023-01-28T01:02:57.566Z,97143.94
2023-01-28T01:05:57.251Z,97141.28
2023-01-28T01:08:53.997Z,97145.63
2023-01-28T01:11:50.783Z,97147.22
2023-01-28T01:14:47.514Z,97141.81
2023-01-28T01:17:46.966Z,97150.00
2023-01-28T01:20:45.663Z,97151.13
2023-01-28T01:23:42.493Z,97149.28
2023-01-28T01:26:39.242Z,97157.75
2023-01-28T01:29:36.031Z,97157.88
2023-01-28T01:32:35.090Z,97160.91
2023-01-28T01:35:31.930Z,97157.69
2023-01-28T01:38:29.513Z,97157.88
2023-01-28T01:41:31.547Z,97155.72
2023-01-28T01:45:02.726Z,97150.66
2023-01-28T01:48:11.183Z,97159.31
2023-01-28T01:51:13.752Z,97158.56
2023-01-28T01:54:10.782Z,97160.91
2023-01-28T01:57:09.944Z,97164.28
2023-01-28T02:00:07.602Z,97160.38
2023-01-28T02:03:04.577Z,97165.25
2023-01-28T02:06:01.364Z,97174.63
2023-01-28T02:08:58.425Z,97168.13
2023-01-28T02:11:59.266Z,97176.31
2023-01-28T02:15:06.226Z,97171.81
2023-01-28T02:18:03.052Z,97175.38
2023-01-28T02:21:18.350Z,97169.88
2023-01-28T02:24:27.075Z,97180.75
2023-01-28T02:27:57.908Z,97185.59
2023-01-28T02:31:17.569Z,97185.72
2023-01-28T02:34:23.101Z,97187.94
2023-01-28T02:37:26.304Z,97196.91
2023-01-28T02:40:29.878Z,97188.59
2023-01-28T02:43:37.703Z,97193.63
2023-01-28T02:46:55.753Z,97190.56
2023-01-28T02:49:56.513Z,97195.66
2023-01-28T02:53:30.659Z,97199.97
2023-01-28T02:56:38.742Z,97200.22
2023-01-28T02:59:49.680Z,97195.81
2023-01-28T03:03:08.328Z,97193.75
2023-01-28T03:06:11.923Z,97188.28
2023-01-28T03:09:22.976Z,97180.91
2023-01-28T03:12:43.115Z,97177.69
2023-01-28T03:16:02.333Z,97175.56
2023-01-28T03:19:17.906Z,97189.72
2023-01-28T03:22:33.237Z,97187.09
2023-01-28T03:25:48.711Z,97193.44
2023-01-28T03:29:04.975Z,97191.66
2023-01-28T03:32:20.896Z,97189.38
2023-01-28T03:35:38.287Z,97193.13
2023-01-28T03:38:42.391Z,97192.91
2023-01-28T03:41:39.289Z,97188.06
2023-01-28T03:44:54.744Z,97198.06
2023-01-28T03:47:51.498Z,97198.25
2023-01-28T03:50:48.893Z,97202.00
2023-01-28T03:53:45.632Z,97198.63
2023-01-28T03:56:42.379Z,97207.19
2023-01-28T03:59:39.139Z,97204.69
2023-01-28T04:02:40.043Z,97206.28
2023-01-28T04:05:36.877Z,97196.97
2023-01-28T04:08:34.024Z,97200.75
2023-01-28T04:11:30.758Z,97211.94
2023-01-28T04:14:27.738Z,97209.53
2023-01-28T04:17:24.632Z,97213.78
2023-01-28T04:20:21.366Z,97209.53
2023-01-28T04:23:18.115Z,97204.84
2023-01-28T04:26:15.078Z,97209.31
2023-01-28T04:29:11.821Z,97210.56
2023-01-28T04:32:11.453Z,97216.50
2023-01-28T04:35:08.708Z,97217.66
2023-01-28T04:38:05.609Z,97211.94
2023-01-28T04:41:02.357Z,97213.78
2023-01-28T04:44:00.832Z,97222.69
2023-01-28T04:46:57.612Z,97219.31
2023-01-28T04:49:54.699Z,97223.53
2023-01-28T04:52:51.465Z,97213.50
2023-01-28T04:55:48.228Z,97213.88
2023-01-28T04:58:44.970Z,97217.91
2023-01-28T05:01:41.776Z,97219.00
2023-01-28T05:04:38.562Z,97231.28
2023-01-28T05:07:35.943Z,97237.00
2023-01-28T05:10:32.694Z,97232.22
2023-01-28T05:13:29.447Z,97231.91
2023-01-28T05:16:26.204Z,97236.69
2023-01-28T05:19:22.982Z,97239.63
2023-01-28T05:22:19.981Z,97235.59
2023-01-28T05:25:17.032Z,97237.66
2023-01-28T05:28:14.004Z,97244.53
2023-01-28T05:31:10.881Z,97235.03
2023-01-28T05:34:08.492Z,97233.97
2023-01-28T05:37:05.248Z,97233.47
2023-01-28T05:40:01.998Z,97245.75
2023-01-28T05:42:58.792Z,97250.22
2023-01-28T05:45:55.571Z,97248.59
2023-01-28T05:48:52.337Z,97243.53
2023-01-28T05:51:49.777Z,97247.19
2023-01-28T05:54:46.557Z,97258.41
2023-01-28T05:57:44.548Z,97250.91
2023-01-28T06:00:41.300Z,97254.59
2023-01-28T06:03:38.043Z,97256.97
2023-01-28T06:06:34.894Z,97274.38
2023-01-28T06:09:32.088Z,97278.53
2023-01-28T06:12:28.836Z,97290.47
2023-01-28T06:15:25.996Z,97292.91
2023-01-28T06:18:22.864Z,97309.22
2023-01-28T06:21:19.627Z,97303.56
2023-01-28T06:24:16.426Z,97299.50
2023-01-28T06:27:13.236Z,97302.81
2023-01-28T06:30:10.633Z,97306.91
2023-01-28T06:33:07.384Z,97301.81
2023-01-28T06:36:06.603Z,97311.72
2023-01-28T06:39:04.317Z,97309.25
2023-01-28T06:42:01.064Z,97309.63
2023-01-28T06:44:57.801Z,97316.78
2023-01-28T06:47:54.557Z,97318.81
2023-01-28T06:50:51.434Z,97313.72
2023-01-28T06:53:48.205Z,97317.78
2023-01-28T06:56:45.057Z,97330.28
2023-01-28T06:59:41.826Z,97323.19
2023-01-28T07:02:40.060Z,97324.28
2023-01-28T07:05:36.834Z,97333.56
2023-01-28T07:08:33.607Z,97321.84
2023-01-28T07:11:30.540Z,97326.03
2023-01-28T07:14:27.604Z,97323.78
2023-01-28T07:17:24.747Z,97337.81
2023-01-28T07:20:22.246Z,97337.44
2023-01-28T07:23:19.064Z,97341.03
2023-01-28T07:26:15.895Z,97341.44
2023-01-28T07:29:12.748Z,97351.97
2023-01-28T07:32:09.571Z,97347.13
2023-01-28T07:35:06.966Z,97348.09
2023-01-28T07:38:03.768Z,97353.56
2023-01-28T07:41:00.562Z,97350.56
2023-01-28T07:43:57.311Z,97339.69
2023-01-28T07:46:54.634Z,97327.00
2023-01-28T07:49:51.375Z,97335.47
2023-01-28T07:52:48.131Z,97337.69
2023-01-28T07:55:45.005Z,97337.66
2023-01-28T07:58:41.745Z,97340.28
2023-01-28T08:01:38.999Z,97342.75
2023-01-28T08:04:35.844Z,97353.22
2023-01-28T08:07:32.641Z,97354.44
2023-01-28T08:10:29.390Z,97358.22
2023-01-28T08:13:26.299Z,97371.38
2023-01-28T08:16:23.093Z,97380.03
2023-01-28T08:19:21.757Z,97379.28
2023-01-28T08:22:19.094Z,97382.31
2023-01-28T08:25:16.176Z,97376.41
2023-01-28T08:28:13.897Z,97376.47
2023-01-28T08:31:10.840Z,97381.28
2023-01-28T08:34:07.677Z,97385.94
2023-01-28T08:37:05.897Z,97381.66
2023-01-28T08:40:02.885Z,97381.22
2023-01-28T08:42:59.833Z,97379.00
2023-01-28T08:45:56.639Z,97378.94
2023-01-28T08:48:53.427Z,97388.63
2023-01-28T08:51:50.223Z,97395.16
2023-01-28T08:54:46.980Z,97391.56
2023-01-28T08:57:43.758Z,97389.31
2023-01-28T09:00:40.942Z,97398.22
2023-01-28T09:03:37.742Z,97399.34
2023-01-28T09:06:34.653Z,97399.06
2023-01-28T09:09:31.523Z,97393.19
2023-01-28T09:12:28.289Z,97400.03
2023-01-28T09:15:25.042Z,97399.03
2023-01-28T09:18:21.800Z,97399.63
2023-01-28T09:21:18.556Z,97408.66
2023-01-28T09:24:15.384Z,97409.72
2023-01-28T09:27:12.402Z,97408.06
2023-01-28T09:30:10.410Z,97405.94
2023-01-28T09:33:08.128Z,97414.56
2023-01-28T09:36:06.738Z,97409.09
2023-01-28T09:39:04.126Z,97418.22
2023-01-28T09:42:09.692Z,97421.28
2023-01-28T09:45:37.270Z,97423.25
2023-01-28T09:48:41.039Z,97423.69
2023-01-28T09:51:52.470Z,97422.66
2023-01-28T09:55:00.299Z,97426.72
2023-01-28T09:57:57.404Z,97432.19
2023-01-28T10:01:12.148Z,97435.59
2023-01-28T10:04:38.215Z,97433.75
2023-01-28T10:07:55.273Z,97433.13
2023-01-28T10:11:09.014Z,97445.28
2023-01-28T10:14:30.032Z,97441.66
2023-01-28T10:18:03.867Z,97441.63
2023-01-28T10:21:26.914Z,97442.59
2023-01-28T10:24:36.759Z,97451.56
2023-01-28T10:27:35.969Z,97445.66
2023-01-28T10:30:35.152Z,97455.22
2023-01-28T10:33:36.949Z,97442.50
2023-01-28T10:36:34.114Z,97442.25
2023-01-28T10:39:30.844Z,97441.34
2023-01-28T10:42:28.994Z,97448.56
2023-01-28T10:45:30.423Z,97456.19
2023-01-28T10:48:32.936Z,97454.94
2023-01-28T10:51:35.121Z,97452.78
2023-01-28T10:54:31.852Z,97461.38
2023-01-28T10:57:28.775Z,97451.66
2023-01-28T11:00:30.825Z,97459.00
2023-01-28T11:03:27.735Z,97467.75
2023-01-28T11:06:29.633Z,97470.53
2023-01-28T11:09:37.574Z,97459.19
2023-01-28T11:12:34.712Z,97453.75
2023-01-28T11:15:32.618Z,97450.03
2023-01-28T11:18:52.299Z,97454.13
2023-01-28T11:21:54.579Z,97451.66
2023-01-28T11:24:51.353Z,97448.66
2023-01-28T11:27:49.922Z,97458.16
2023-01-28T11:30:51.788Z,97446.03
2023-01-28T11:34:02.173Z,97453.63
2023-01-28T11:37:18.646Z,97454.88
2023-01-28T11:40:21.398Z,97455.59
2023-01-28T11:43:21.763Z,97440.03
2023-01-28T11:46:18.535Z,97443.63
2023-01-28T11:49:37.916Z,97446.47
2023-01-28T11:53:06.893Z,97446.22
2023-01-28T11:56:20.218Z,97439.81
2023-01-28T11:59:42.925Z,97442.06
2023-01-28T12:02:44.648Z,97436.97
2023-01-28T12:05:56.906Z,97427.03
2023-01-28T12:09:29.034Z,97432.91
2023-01-28T12:12:54.829Z,97431.88
2023-01-28T12:16:10.975Z,97430.19
2023-01-28T12:19:33.422Z,97436.19
2023-01-28T12:22:57.091Z,97429.94
2023-01-28T12:26:04.587Z,97433.59
2023-01-28T12:29:14.443Z,97435.84
2023-01-28T12:32:31.600Z,97440.84
2023-01-28T12:35:32.860Z,97442.25
2023-01-28T12:39:08.458Z,97430.75
2023-01-28T12:42:05.418Z,97433.19
2023-01-28T12:45:15.224Z,97434.03
2023-01-28T12:48:20.087Z,97430.75
2023-01-28T12:51:46.407Z,97425.22
2023-01-28T12:55:15.515Z,97426.47
2023-01-28T12:58:19.843Z,97432.97
2023-01-28T13:01:42.812Z,97426.47
2023-01-28T13:04:45.763Z,97427.16
2023-01-28T13:07:57.920Z,97419.66
2023-01-28T13:10:57.885Z,97421.69
2023-01-28T13:13:55.056Z,97429.19
2023-01-28T13:16:52.115Z,97429.97
2023-01-28T13:19:49.061Z,97426.34
2023-01-28T13:22:46.099Z,97427.53
2023-01-28T13:25:49.473Z,97439.88
2023-01-28T13:28:51.382Z,97438.44
2023-01-28T13:31:52.266Z,97450.41
2023-01-28T13:34:58.752Z,97452.41
2023-01-28T13:37:57.163Z,97453.44
2023-01-28T13:41:06.374Z,97450.00
2023-01-28T13:44:03.166Z,97452.03
2023-01-28T13:47:19.803Z,97451.81
2023-01-28T13:50:20.501Z,97451.81
2023-01-28T13:53:44.310Z,97466.56
2023-01-28T13:56:59.821Z,97463.75
2023-01-28T14:00:12.989Z,97466.16
2023-01-28T14:03:24.686Z,97470.81
2023-01-28T14:07:01.584Z,97467.38
2023-01-28T14:10:13.815Z,97483.31
2023-01-28T14:13:44.509Z,97493.16
2023-01-28T14:16:52.751Z,97484.53
2023-01-28T14:19:51.059Z,97484.88
2023-01-28T14:22:48.886Z,97481.09
2023-01-28T14:25:57.553Z,97484.31
2023-01-28T14:29:10.582Z,97488.75
2023-01-28T14:32:17.037Z,97484.72
2023-01-28T14:35:19.616Z,97484.53
2023-01-28T14:38:18.949Z,97481.84
2023-01-28T14:41:26.132Z,97482.44
2023-01-28T14:44:33.587Z,97473.41
2023-01-28T14:47:30.305Z,97477.84
2023-01-28T14:50:34.668Z,97474.22
2023-01-28T14:53:56.610Z,97466.75
2023-01-28T14:56:56.266Z,97477.03
2023-01-28T14:59:57.978Z,97476.41
2023-01-28T15:02:54.824Z,97472.00
2023-01-28T15:06:13.508Z,97481.09
2023-01-28T15:09:13.195Z,97488.72
2023-01-28T15:12:10.036Z,97477.44
2023-01-28T15:15:29.030Z,97477.75
2023-01-28T15:18:37.546Z,97470.13
2023-01-28T15:21:35.743Z,97458.81
2023-01-28T15:24:34.952Z,97463.66
2023-01-28T15:27:32.351Z,97467.91
2023-01-28T15:30:31.874Z,97455.28
2023-01-28T15:33:28.654Z,97460.41
2023-01-28T15:36:26.964Z,97462.19
2023-01-28T15:39:26.061Z,97454.75
2023-01-28T15:42:26.984Z,97456.75
2023-01-28T15:45:26.118Z,97454.97
2023-01-28T15:48:30.933Z,97458.00
2023-01-28T15:51:31.733Z,97462.03
2023-01-28T15:54:30.386Z,97462.00
2023-01-28T15:57:34.975Z,97464.16
2023-01-28T16:00:31.718Z,97447.63
2023-01-28T16:03:28.597Z,97452.66
2023-01-28T16:06:38.447Z,97457.72
2023-01-28T16:09:36.060Z,97458.31
2023-01-28T16:12:32.813Z,97462.34
2023-01-28T16:15:29.591Z,97469.97
2023-01-28T16:18:38.954Z,97487.59
2023-01-28T16:21:38.526Z,97490.13
2023-01-28T16:24:36.350Z,97482.78
2023-01-28T16:27:33.406Z,97471.84
2023-01-28T16:30:30.313Z,97472.44
2023-01-28T16:33:27.295Z,97480.41
2023-01-28T16:36:24.148Z,97478.88
2023-01-28T16:39:20.901Z,97481.66
2023-01-28T16:42:17.896Z,97486.53
2023-01-28T16:45:18.716Z,97493.81
2023-01-28T16:48:15.585Z,97486.50
2023-01-28T16:51:21.364Z,97490.38
2023-01-28T16:54:18.234Z,97493.34
2023-01-28T16:57:20.611Z,97510.69
2023-01-28T17:00:20.534Z,97495.63
2023-01-28T17:03:17.286Z,97496.09
2023-01-28T17:06:18.672Z,97503.00
2023-01-28T17:09:15.622Z,97499.69
2023-01-28T17:12:12.364Z,97498.59
2023-01-28T17:15:09.495Z,97507.38
2023-01-28T17:18:06.298Z,97509.72
2023-01-28T17:21:05.482Z,97515.66
2023-01-28T17:24:03.148Z,97531.41
2023-01-28T17:27:00.145Z,97515.84
2023-01-28T17:29:56.931Z,97532.44
2023-01-28T17:32:54.140Z,97538.34
2023-01-28T17:35:50.912Z,97542.34
2023-01-28T17:38:48.587Z,97548.81
2023-01-28T17:41:45.363Z,97540.22
2023-01-28T17:44:42.137Z,97551.31
2023-01-28T17:47:39.267Z,97554.78
2023-01-28T17:50:39.185Z,97548.66
2023-01-28T17:53:36.030Z,97554.44
2023-01-28T17:56:32.899Z,97551.06
2023-01-28T17:59:29.737Z,97543.56
2023-01-28T18:02:26.559Z,97539.06
2023-01-28T18:05:23.875Z,97550.50
2023-01-28T18:08:20.627Z,97545.56
2023-01-28T18:11:19.218Z,97547.03
2023-01-28T18:14:16.005Z,97531.66
2023-01-28T18:17:12.839Z,97525.00
2023-01-28T18:20:10.684Z,97526.50
2023-01-28T18:23:07.507Z,97521.47
2023-01-28T18:26:07.243Z,97520.81
2023-01-28T18:29:04.560Z,97523.06
2023-01-28T18:32:01.389Z,97535.66
2023-01-28T18:34:58.129Z,97538.34
2023-01-28T18:37:55.446Z,97550.72
2023-01-28T18:40:56.216Z,97569.31
2023-01-28T18:43:52.966Z,97583.09
2023-01-28T18:46:50.951Z,97589.69
2023-01-28T18:49:47.787Z,97608.66
2023-01-28T18:52:44.630Z,97618.28
2023-01-28T18:55:41.388Z,97626.50
2023-01-28T18:58:38.159Z,97619.50
2023-01-28T19:01:35.469Z,97608.03
2023-01-28T19:04:32.622Z,97609.63
2023-01-28T19:07:31.147Z,97642.06
2023-01-28T19:10:27.979Z,97629.56
2023-01-28T19:13:25.224Z,97627.09
2023-01-28T19:16:22.090Z,97630.78
2023-01-28T19:19:18.876Z,97622.91
2023-01-28T19:22:16.557Z,97630.38
2023-01-28T19:25:13.793Z,97624.19
2023-01-28T19:28:10.748Z,97632.38
2023-01-28T19:31:09.678Z,97641.72
2023-01-28T19:34:06.959Z,97642.69
2023-01-28T19:37:03.728Z,97629.38
2023-01-28T19:40:00.486Z,97629.09
2023-01-28T19:42:57.303Z,97630.66
2023-01-28T19:45:57.797Z,97619.84
2023-01-28T19:48:54.695Z,97626.69
2023-01-28T19:51:51.939Z,97612.50
2023-01-28T19:54:48.673Z,97617.75
2023-01-28T19:57:45.457Z,97614.47
2023-01-28T20:00:42.222Z,97604.25
2023-01-28T20:03:39.361Z,97610.16
2023-01-28T20:06:36.333Z,97610.09
2023-01-28T20:09:33.145Z,97608.41
2023-01-28T20:12:29.881Z,97605.59
2023-01-28T20:15:26.614Z,97598.81
2023-01-28T20:18:23.397Z,97609.44
2023-01-28T20:21:20.907Z,97607.22
2023-01-28T20:24:17.796Z,97600.97
2023-01-28T20:27:14.579Z,97604.78
2023-01-28T20:30:11.877Z,97595.38
2023-01-28T20:33:08.625Z,97609.94
2023-01-28T20:36:08.055Z,97610.09
2023-01-28T20:39:04.794Z,97606.16
2023-01-28T20:42:01.828Z,97606.03
2023-01-28T20:44:58.557Z,97615.69
2023-01-28T20:47:55.351Z,97626.19
2023-01-28T20:50:52.279Z,97631.38
2023-01-28T20:53:49.604Z,97635.09
2023-01-28T20:56:48.744Z,97622.06
2023-01-28T20:59:46.527Z,97610.69
2023-01-28T21:02:45.109Z,97623.03
2023-01-28T21:05:44.716Z,97606.25
2023-01-28T21:08:41.474Z,97623.03
2023-01-28T21:11:38.276Z,97611.22
2023-01-28T21:14:35.009Z,97620.22
2023-01-28T21:17:32.060Z,97622.28
2023-01-28T21:20:29.911Z,97634.88
2023-01-28T21:23:26.650Z,97640.59
2023-01-28T21:26:24.140Z,97648.84
2023-01-28T21:29:20.889Z,97645.41
2023-01-28T21:32:17.929Z,97651.53
2023-01-28T21:35:14.743Z,97633.38
2023-01-28T21:38:11.806Z,97633.41
2023-01-28T21:41:08.933Z,97630.94
2023-01-28T21:44:05.673Z,97632.50
2023-01-28T21:47:02.424Z,97630.34
2023-01-28T21:50:00.702Z,97623.34
2023-01-28T21:52:57.479Z,97627.63
2023-01-28T21:55:54.263Z,97619.34
2023-01-28T21:59:23.349Z,97622.97
2023-01-28T22:02:22.786Z,97618.34
2023-01-28T22:05:20.543Z,97615.19
2023-01-28T22:08:17.629Z,97624.88
2023-01-28T22:11:14.370Z,97616.91
2023-01-28T22:14:11.606Z,97617.59
2023-01-28T22:17:11.148Z,97627.06
2023-01-28T22:20:08.566Z,97626.56
2023-01-28T22:23:05.310Z,97621.22
2023-01-28T22:26:02.450Z,97626.34
2023-01-28T22:28:59.194Z,97617.91
2023-01-28T22:31:56.062Z,97613.41
2023-01-28T22:34:52.930Z,97610.06
2023-01-28T22:37:49.691Z,97604.66
2023-01-28T22:40:46.428Z,97612.31
2023-01-28T22:43:43.236Z,97608.75
2023-01-28T22:46:40.105Z,97620.91
2023-01-28T22:49:36.895Z,97611.06
2023-01-28T22:52:33.647Z,97610.78
2023-01-28T22:55:32.538Z,97618.09
2023-01-28T22:58:31.517Z,97612.88
2023-01-28T23:01:28.966Z,97617.38
2023-01-28T23:04:25.741Z,97610.34
2023-01-28T23:07:22.500Z,97613.06
2023-01-28T23:10:19.548Z,97613.94
2023-01-28T23:13:22.387Z,97614.28
2023-01-28T23:16:37.776Z,97610.00
2023-01-28T23:19:53.643Z,97605.91
2023-01-28T23:23:09.128Z,97607.44
2023-01-28T23:26:07.121Z,97619.09
2023-01-28T23:29:04.025Z,97621.41
2023-01-28T23:32:03.779Z,97621.44
2023-01-28T23:35:00.533Z,97609.47
2023-01-28T23:37:57.307Z,97612.69
2023-01-28T23:40:54.890Z,97618.81
2023-01-28T23:43:51.661Z,97626.75
2023-01-28T23:46:48.476Z,97633.59
2023-01-28T23:49:45.807Z,97636.34
2023-01-28T23:52:42.564Z,97633.50
2023-01-28T23:55:40.568Z,97634.47
2023-01-28T23:58:43.812Z,97633.63
